<?xml version="1.0" encoding="UTF-8" standalone="no" ?>
<gpx xmlns="http://www.topografix.com/GPX/1/1" xmlns:xsi="http://www.w3.org/2001/XMLSchema-instance" xsi:schemaLocation="http://www.topografix.com/GPX/1/1 http://www.topografix.com/GPX/1/1/gpx.xsd" version="1.1" creator="VisuGPX - https://www.visugpx.com">
  <metadata>
    <name>GR65 d\'Espalion à Estaing</name>
    <desc><![CDATA[Sur le chemin de Saint Jacques de Compostelle entre Espalion et Estaing]]></desc>
  </metadata>
  <trk>
    <name><![CDATA[ACTIVE LOG112807]]></name>
    <trkseg>
      <trkpt lat="44.52638" lon="2.73025">
        <ele>344.318</ele>
        <time>2013-06-20T09:28:07Z</time>
      </trkpt>
      <trkpt lat="44.5265" lon="2.73011">
        <ele>344.37</ele>
        <time>2013-06-20T09:28:17Z</time>
      </trkpt>
      <trkpt lat="44.52653" lon="2.73">
        <ele>343.827</ele>
        <time>2013-06-20T09:28:35Z</time>
      </trkpt>
      <trkpt lat="44.52639" lon="2.73">
        <ele>344.018</ele>
        <time>2013-06-20T09:28:43Z</time>
      </trkpt>
      <trkpt lat="44.5263" lon="2.72985">
        <ele>344.49</ele>
        <time>2013-06-20T09:28:49Z</time>
      </trkpt>
      <trkpt lat="44.5264" lon="2.73007">
        <ele>344.2</ele>
        <time>2013-06-20T09:29:00Z</time>
      </trkpt>
      <trkpt lat="44.52642" lon="2.7302">
        <ele>344.169</ele>
        <time>2013-06-20T09:29:11Z</time>
      </trkpt>
      <trkpt lat="44.52644" lon="2.73019">
        <ele>343.97</ele>
        <time>2013-06-20T09:29:26Z</time>
      </trkpt>
      <trkpt lat="44.52644" lon="2.73022">
        <ele>344.613</ele>
        <time>2013-06-20T09:29:28Z</time>
      </trkpt>
      <trkpt lat="44.52639" lon="2.73013">
        <ele>344.171</ele>
        <time>2013-06-20T09:29:41Z</time>
      </trkpt>
      <trkpt lat="44.52639" lon="2.72998">
        <ele>344.518</ele>
        <time>2013-06-20T09:29:53Z</time>
      </trkpt>
      <trkpt lat="44.52631" lon="2.72996">
        <ele>344.713</ele>
        <time>2013-06-20T09:30:10Z</time>
      </trkpt>
      <trkpt lat="44.52634" lon="2.73">
        <ele>344.584</ele>
        <time>2013-06-20T09:30:28Z</time>
      </trkpt>
      <trkpt lat="44.52639" lon="2.72996">
        <ele>344.206</ele>
        <time>2013-06-20T09:30:40Z</time>
      </trkpt>
      <trkpt lat="44.52638" lon="2.72995">
        <ele>345.51</ele>
        <time>2013-06-20T09:30:53Z</time>
      </trkpt>
      <trkpt lat="44.52633" lon="2.72996">
        <ele>344.506</ele>
        <time>2013-06-20T09:30:56Z</time>
      </trkpt>
      <trkpt lat="44.52625" lon="2.72997">
        <ele>344.986</ele>
        <time>2013-06-20T09:31:02Z</time>
      </trkpt>
      <trkpt lat="44.52615" lon="2.72993">
        <ele>344.817</ele>
        <time>2013-06-20T09:31:13Z</time>
      </trkpt>
      <trkpt lat="44.52634" lon="2.73015">
        <ele>344.669</ele>
        <time>2013-06-20T09:31:38Z</time>
      </trkpt>
      <trkpt lat="44.52643" lon="2.73008">
        <ele>344.548</ele>
        <time>2013-06-20T09:31:48Z</time>
      </trkpt>
      <trkpt lat="44.5264" lon="2.73007">
        <ele>344.502</ele>
        <time>2013-06-20T09:32:00Z</time>
      </trkpt>
      <trkpt lat="44.52636" lon="2.73008">
        <ele>344.935</ele>
        <time>2013-06-20T09:32:03Z</time>
      </trkpt>
      <trkpt lat="44.52635" lon="2.73013">
        <ele>345.014</ele>
        <time>2013-06-20T09:32:09Z</time>
      </trkpt>
      <trkpt lat="44.52629" lon="2.73006">
        <ele>345.094</ele>
        <time>2013-06-20T09:32:22Z</time>
      </trkpt>
      <trkpt lat="44.52632" lon="2.73008">
        <ele>344.585</ele>
        <time>2013-06-20T09:32:33Z</time>
      </trkpt>
      <trkpt lat="44.52628" lon="2.73017">
        <ele>344.765</ele>
        <time>2013-06-20T09:32:46Z</time>
      </trkpt>
      <trkpt lat="44.52633" lon="2.73023">
        <ele>344.791</ele>
        <time>2013-06-20T09:33:17Z</time>
      </trkpt>
      <trkpt lat="44.52637" lon="2.73016">
        <ele>344.825</ele>
        <time>2013-06-20T09:33:35Z</time>
      </trkpt>
      <trkpt lat="44.52624" lon="2.73">
        <ele>344.29</ele>
        <time>2013-06-20T09:33:55Z</time>
      </trkpt>
      <trkpt lat="44.52619" lon="2.72989">
        <ele>342.476</ele>
        <time>2013-06-20T09:34:13Z</time>
      </trkpt>
      <trkpt lat="44.52617" lon="2.72981">
        <ele>341.767</ele>
        <time>2013-06-20T09:34:19Z</time>
      </trkpt>
      <trkpt lat="44.52614" lon="2.72952">
        <ele>341.347</ele>
        <time>2013-06-20T09:34:40Z</time>
      </trkpt>
      <trkpt lat="44.5261" lon="2.72925">
        <ele>341.747</ele>
        <time>2013-06-20T09:35:00Z</time>
      </trkpt>
      <trkpt lat="44.52607" lon="2.72902">
        <ele>341.613</ele>
        <time>2013-06-20T09:35:17Z</time>
      </trkpt>
      <trkpt lat="44.526" lon="2.72875">
        <ele>342.222</ele>
        <time>2013-06-20T09:35:35Z</time>
      </trkpt>
      <trkpt lat="44.52593" lon="2.72847">
        <ele>342.47</ele>
        <time>2013-06-20T09:35:57Z</time>
      </trkpt>
      <trkpt lat="44.52591" lon="2.72846">
        <ele>341.54</ele>
        <time>2013-06-20T09:36:23Z</time>
      </trkpt>
      <trkpt lat="44.52591" lon="2.72837">
        <ele>342.23</ele>
        <time>2013-06-20T09:36:49Z</time>
      </trkpt>
      <trkpt lat="44.52595" lon="2.72814">
        <ele>343.643</ele>
        <time>2013-06-20T09:37:10Z</time>
      </trkpt>
      <trkpt lat="44.52612" lon="2.72812">
        <ele>344.514</ele>
        <time>2013-06-20T09:37:30Z</time>
      </trkpt>
      <trkpt lat="44.52629" lon="2.72827">
        <ele>347.027</ele>
        <time>2013-06-20T09:37:53Z</time>
      </trkpt>
      <trkpt lat="44.52646" lon="2.72831">
        <ele>348.295</ele>
        <time>2013-06-20T09:38:14Z</time>
      </trkpt>
      <trkpt lat="44.52658" lon="2.72824">
        <ele>351.349</ele>
        <time>2013-06-20T09:38:30Z</time>
      </trkpt>
      <trkpt lat="44.52674" lon="2.72822">
        <ele>352.23</ele>
        <time>2013-06-20T09:38:52Z</time>
      </trkpt>
      <trkpt lat="44.52679" lon="2.72828">
        <ele>352.492</ele>
        <time>2013-06-20T09:39:09Z</time>
      </trkpt>
      <trkpt lat="44.52682" lon="2.72834">
        <ele>352.574</ele>
        <time>2013-06-20T09:39:31Z</time>
      </trkpt>
      <trkpt lat="44.52683" lon="2.72833">
        <ele>352.646</ele>
        <time>2013-06-20T09:40:02Z</time>
      </trkpt>
      <trkpt lat="44.52687" lon="2.72833">
        <ele>353.525</ele>
        <time>2013-06-20T09:40:40Z</time>
      </trkpt>
      <trkpt lat="44.52687" lon="2.72823">
        <ele>355.717</ele>
        <time>2013-06-20T09:40:56Z</time>
      </trkpt>
      <trkpt lat="44.52688" lon="2.72811">
        <ele>356.878</ele>
        <time>2013-06-20T09:41:14Z</time>
      </trkpt>
      <trkpt lat="44.52691" lon="2.72806">
        <ele>360.095</ele>
        <time>2013-06-20T09:41:29Z</time>
      </trkpt>
      <trkpt lat="44.52695" lon="2.7281">
        <ele>361.621</ele>
        <time>2013-06-20T09:41:45Z</time>
      </trkpt>
      <trkpt lat="44.52697" lon="2.72804">
        <ele>363.653</ele>
        <time>2013-06-20T09:42:02Z</time>
      </trkpt>
      <trkpt lat="44.52698" lon="2.72798">
        <ele>364.309</ele>
        <time>2013-06-20T09:42:26Z</time>
      </trkpt>
      <trkpt lat="44.52696" lon="2.72785">
        <ele>364.48</ele>
        <time>2013-06-20T09:42:42Z</time>
      </trkpt>
      <trkpt lat="44.52697" lon="2.72775">
        <ele>365.029</ele>
        <time>2013-06-20T09:42:56Z</time>
      </trkpt>
      <trkpt lat="44.52695" lon="2.7276">
        <ele>367.108</ele>
        <time>2013-06-20T09:43:14Z</time>
      </trkpt>
      <trkpt lat="44.52688" lon="2.72749">
        <ele>368.716</ele>
        <time>2013-06-20T09:43:31Z</time>
      </trkpt>
      <trkpt lat="44.52678" lon="2.72734">
        <ele>371.315</ele>
        <time>2013-06-20T09:43:52Z</time>
      </trkpt>
      <trkpt lat="44.52674" lon="2.72724">
        <ele>372.974</ele>
        <time>2013-06-20T09:44:10Z</time>
      </trkpt>
      <trkpt lat="44.52665" lon="2.72714">
        <ele>375.125</ele>
        <time>2013-06-20T09:44:27Z</time>
      </trkpt>
      <trkpt lat="44.52662" lon="2.72704">
        <ele>374.939</ele>
        <time>2013-06-20T09:44:43Z</time>
      </trkpt>
      <trkpt lat="44.52656" lon="2.72697">
        <ele>375.654</ele>
        <time>2013-06-20T09:45:01Z</time>
      </trkpt>
      <trkpt lat="44.52652" lon="2.72689">
        <ele>377.509</ele>
        <time>2013-06-20T09:45:18Z</time>
      </trkpt>
      <trkpt lat="44.52652" lon="2.72681">
        <ele>379.167</ele>
        <time>2013-06-20T09:45:37Z</time>
      </trkpt>
      <trkpt lat="44.52652" lon="2.72677">
        <ele>379.19</ele>
        <time>2013-06-20T09:46:00Z</time>
      </trkpt>
      <trkpt lat="44.5265" lon="2.72673">
        <ele>379.144</ele>
        <time>2013-06-20T09:46:39Z</time>
      </trkpt>
      <trkpt lat="44.52648" lon="2.72675">
        <ele>379.298</ele>
        <time>2013-06-20T09:47:08Z</time>
      </trkpt>
      <trkpt lat="44.52648" lon="2.72672">
        <ele>380.421</ele>
        <time>2013-06-20T09:47:46Z</time>
      </trkpt>
      <trkpt lat="44.52646" lon="2.72666">
        <ele>382.296</ele>
        <time>2013-06-20T09:48:06Z</time>
      </trkpt>
      <trkpt lat="44.52648" lon="2.72666">
        <ele>383.856</ele>
        <time>2013-06-20T09:48:22Z</time>
      </trkpt>
      <trkpt lat="44.52651" lon="2.72661">
        <ele>386.28</ele>
        <time>2013-06-20T09:48:39Z</time>
      </trkpt>
      <trkpt lat="44.52651" lon="2.7265">
        <ele>386.794</ele>
        <time>2013-06-20T09:49:00Z</time>
      </trkpt>
      <trkpt lat="44.52653" lon="2.72638">
        <ele>389.182</ele>
        <time>2013-06-20T09:49:18Z</time>
      </trkpt>
      <trkpt lat="44.52653" lon="2.72627">
        <ele>390.78</ele>
        <time>2013-06-20T09:50:09Z</time>
      </trkpt>
      <trkpt lat="44.52652" lon="2.72621">
        <ele>391.968</ele>
        <time>2013-06-20T09:50:25Z</time>
      </trkpt>
      <trkpt lat="44.52654" lon="2.72616">
        <ele>393.062</ele>
        <time>2013-06-20T09:50:40Z</time>
      </trkpt>
      <trkpt lat="44.52658" lon="2.72615">
        <ele>395.484</ele>
        <time>2013-06-20T09:50:57Z</time>
      </trkpt>
      <trkpt lat="44.52663" lon="2.72611">
        <ele>397.455</ele>
        <time>2013-06-20T09:51:13Z</time>
      </trkpt>
      <trkpt lat="44.52669" lon="2.72607">
        <ele>400.449</ele>
        <time>2013-06-20T09:51:30Z</time>
      </trkpt>
      <trkpt lat="44.52671" lon="2.72603">
        <ele>400.997</ele>
        <time>2013-06-20T09:51:44Z</time>
      </trkpt>
      <trkpt lat="44.52675" lon="2.72599">
        <ele>402.093</ele>
        <time>2013-06-20T09:52:02Z</time>
      </trkpt>
      <trkpt lat="44.52678" lon="2.72596">
        <ele>402.273</ele>
        <time>2013-06-20T09:52:35Z</time>
      </trkpt>
      <trkpt lat="44.52681" lon="2.72594">
        <ele>402.521</ele>
        <time>2013-06-20T09:53:40Z</time>
      </trkpt>
      <trkpt lat="44.52684" lon="2.72592">
        <ele>404.487</ele>
        <time>2013-06-20T09:54:03Z</time>
      </trkpt>
      <trkpt lat="44.52687" lon="2.72591">
        <ele>407.763</ele>
        <time>2013-06-20T09:54:18Z</time>
      </trkpt>
      <trkpt lat="44.52687" lon="2.72588">
        <ele>408.111</ele>
        <time>2013-06-20T09:54:39Z</time>
      </trkpt>
      <trkpt lat="44.52689" lon="2.72585">
        <ele>408.608</ele>
        <time>2013-06-20T09:55:17Z</time>
      </trkpt>
      <trkpt lat="44.52693" lon="2.72587">
        <ele>409.176</ele>
        <time>2013-06-20T09:55:34Z</time>
      </trkpt>
      <trkpt lat="44.52697" lon="2.72588">
        <ele>411.533</ele>
        <time>2013-06-20T09:55:50Z</time>
      </trkpt>
      <trkpt lat="44.52701" lon="2.72587">
        <ele>413.879</ele>
        <time>2013-06-20T09:56:07Z</time>
      </trkpt>
      <trkpt lat="44.52705" lon="2.72584">
        <ele>416.154</ele>
        <time>2013-06-20T09:56:23Z</time>
      </trkpt>
      <trkpt lat="44.52711" lon="2.72581">
        <ele>417.457</ele>
        <time>2013-06-20T09:56:40Z</time>
      </trkpt>
      <trkpt lat="44.52721" lon="2.72577">
        <ele>419.755</ele>
        <time>2013-06-20T09:57:00Z</time>
      </trkpt>
      <trkpt lat="44.52733" lon="2.7257">
        <ele>421.362</ele>
        <time>2013-06-20T09:57:19Z</time>
      </trkpt>
      <trkpt lat="44.52742" lon="2.72566">
        <ele>422.081</ele>
        <time>2013-06-20T09:57:38Z</time>
      </trkpt>
      <trkpt lat="44.52743" lon="2.72566">
        <ele>422.079</ele>
        <time>2013-06-20T09:58:38Z</time>
      </trkpt>
      <trkpt lat="44.52748" lon="2.72561">
        <ele>422.873</ele>
        <time>2013-06-20T09:59:36Z</time>
      </trkpt>
      <trkpt lat="44.52759" lon="2.72554">
        <ele>424.569</ele>
        <time>2013-06-20T09:59:55Z</time>
      </trkpt>
      <trkpt lat="44.5277" lon="2.72545">
        <ele>426.384</ele>
        <time>2013-06-20T10:00:16Z</time>
      </trkpt>
      <trkpt lat="44.52778" lon="2.72543">
        <ele>428.021</ele>
        <time>2013-06-20T10:00:33Z</time>
      </trkpt>
      <trkpt lat="44.5278" lon="2.72543">
        <ele>429.568</ele>
        <time>2013-06-20T10:00:40Z</time>
      </trkpt>
      <trkpt lat="44.52784" lon="2.72543">
        <ele>430.535</ele>
        <time>2013-06-20T10:01:00Z</time>
      </trkpt>
      <trkpt lat="44.5279" lon="2.72536">
        <ele>433.088</ele>
        <time>2013-06-20T10:01:19Z</time>
      </trkpt>
      <trkpt lat="44.52795" lon="2.72536">
        <ele>434.542</ele>
        <time>2013-06-20T10:01:37Z</time>
      </trkpt>
      <trkpt lat="44.52798" lon="2.72537">
        <ele>437.323</ele>
        <time>2013-06-20T10:01:53Z</time>
      </trkpt>
      <trkpt lat="44.528" lon="2.72538">
        <ele>439.575</ele>
        <time>2013-06-20T10:02:05Z</time>
      </trkpt>
      <trkpt lat="44.528" lon="2.72536">
        <ele>441.117</ele>
        <time>2013-06-20T10:02:20Z</time>
      </trkpt>
      <trkpt lat="44.52804" lon="2.72535">
        <ele>441.196</ele>
        <time>2013-06-20T10:03:23Z</time>
      </trkpt>
      <trkpt lat="44.52808" lon="2.72536">
        <ele>441.576</ele>
        <time>2013-06-20T10:03:43Z</time>
      </trkpt>
      <trkpt lat="44.52808" lon="2.72533">
        <ele>441.749</ele>
        <time>2013-06-20T10:04:41Z</time>
      </trkpt>
      <trkpt lat="44.5281" lon="2.72531">
        <ele>441.844</ele>
        <time>2013-06-20T10:05:54Z</time>
      </trkpt>
      <trkpt lat="44.52811" lon="2.72534">
        <ele>442.924</ele>
        <time>2013-06-20T10:06:08Z</time>
      </trkpt>
      <trkpt lat="44.52814" lon="2.72537">
        <ele>444.189</ele>
        <time>2013-06-20T10:06:24Z</time>
      </trkpt>
      <trkpt lat="44.52817" lon="2.72537">
        <ele>445.984</ele>
        <time>2013-06-20T10:06:39Z</time>
      </trkpt>
      <trkpt lat="44.5282" lon="2.72542">
        <ele>448.802</ele>
        <time>2013-06-20T10:06:56Z</time>
      </trkpt>
      <trkpt lat="44.52825" lon="2.72545">
        <ele>450.601</ele>
        <time>2013-06-20T10:07:10Z</time>
      </trkpt>
      <trkpt lat="44.52831" lon="2.72555">
        <ele>450.833</ele>
        <time>2013-06-20T10:07:26Z</time>
      </trkpt>
      <trkpt lat="44.52841" lon="2.72561">
        <ele>453.01</ele>
        <time>2013-06-20T10:07:43Z</time>
      </trkpt>
      <trkpt lat="44.52854" lon="2.72561">
        <ele>455.543</ele>
        <time>2013-06-20T10:08:03Z</time>
      </trkpt>
      <trkpt lat="44.5286" lon="2.72557">
        <ele>456.467</ele>
        <time>2013-06-20T10:08:17Z</time>
      </trkpt>
      <trkpt lat="44.52865" lon="2.72553">
        <ele>459.474</ele>
        <time>2013-06-20T10:08:30Z</time>
      </trkpt>
      <trkpt lat="44.52869" lon="2.72547">
        <ele>460.589</ele>
        <time>2013-06-20T10:08:45Z</time>
      </trkpt>
      <trkpt lat="44.52874" lon="2.72541">
        <ele>462.906</ele>
        <time>2013-06-20T10:09:00Z</time>
      </trkpt>
      <trkpt lat="44.52876" lon="2.72529">
        <ele>465.157</ele>
        <time>2013-06-20T10:09:16Z</time>
      </trkpt>
      <trkpt lat="44.52875" lon="2.72518">
        <ele>466.658</ele>
        <time>2013-06-20T10:09:31Z</time>
      </trkpt>
      <trkpt lat="44.52875" lon="2.72511">
        <ele>467.771</ele>
        <time>2013-06-20T10:09:49Z</time>
      </trkpt>
      <trkpt lat="44.5288" lon="2.72508">
        <ele>469.143</ele>
        <time>2013-06-20T10:10:22Z</time>
      </trkpt>
      <trkpt lat="44.52885" lon="2.72496">
        <ele>470.912</ele>
        <time>2013-06-20T10:10:40Z</time>
      </trkpt>
      <trkpt lat="44.5289" lon="2.72483">
        <ele>472.703</ele>
        <time>2013-06-20T10:11:00Z</time>
      </trkpt>
      <trkpt lat="44.52896" lon="2.72474">
        <ele>474.387</ele>
        <time>2013-06-20T10:11:19Z</time>
      </trkpt>
      <trkpt lat="44.52901" lon="2.72466">
        <ele>476.546</ele>
        <time>2013-06-20T10:11:34Z</time>
      </trkpt>
      <trkpt lat="44.52908" lon="2.72449">
        <ele>478.309</ele>
        <time>2013-06-20T10:11:55Z</time>
      </trkpt>
      <trkpt lat="44.52909" lon="2.72445">
        <ele>478.824</ele>
        <time>2013-06-20T10:12:13Z</time>
      </trkpt>
      <trkpt lat="44.52908" lon="2.72444">
        <ele>479.175</ele>
        <time>2013-06-20T10:12:47Z</time>
      </trkpt>
      <trkpt lat="44.52908" lon="2.72444">
        <ele>478.887</ele>
        <time>2013-06-20T10:13:29Z</time>
      </trkpt>
      <trkpt lat="44.52909" lon="2.72445">
        <ele>478.381</ele>
        <time>2013-06-20T10:14:44Z</time>
      </trkpt>
      <trkpt lat="44.52909" lon="2.72445">
        <ele>478.239</ele>
        <time>2013-06-20T10:15:20Z</time>
      </trkpt>
      <trkpt lat="44.52909" lon="2.72446">
        <ele>478.086</ele>
        <time>2013-06-20T10:17:45Z</time>
      </trkpt>
      <trkpt lat="44.52914" lon="2.72434">
        <ele>479.762</ele>
        <time>2013-06-20T10:18:33Z</time>
      </trkpt>
      <trkpt lat="44.52919" lon="2.72423">
        <ele>482.362</ele>
        <time>2013-06-20T10:18:51Z</time>
      </trkpt>
      <trkpt lat="44.52925" lon="2.72407">
        <ele>484.805</ele>
        <time>2013-06-20T10:19:11Z</time>
      </trkpt>
      <trkpt lat="44.52931" lon="2.7239">
        <ele>486.634</ele>
        <time>2013-06-20T10:19:32Z</time>
      </trkpt>
      <trkpt lat="44.52935" lon="2.72371">
        <ele>489.455</ele>
        <time>2013-06-20T10:19:53Z</time>
      </trkpt>
      <trkpt lat="44.52936" lon="2.72352">
        <ele>489.432</ele>
        <time>2013-06-20T10:20:09Z</time>
      </trkpt>
      <trkpt lat="44.52939" lon="2.72328">
        <ele>491.403</ele>
        <time>2013-06-20T10:20:30Z</time>
      </trkpt>
      <trkpt lat="44.52943" lon="2.72308">
        <ele>492.106</ele>
        <time>2013-06-20T10:20:47Z</time>
      </trkpt>
      <trkpt lat="44.52946" lon="2.72281">
        <ele>492.884</ele>
        <time>2013-06-20T10:21:09Z</time>
      </trkpt>
      <trkpt lat="44.52949" lon="2.72264">
        <ele>493.117</ele>
        <time>2013-06-20T10:21:26Z</time>
      </trkpt>
      <trkpt lat="44.52951" lon="2.72243">
        <ele>494.058</ele>
        <time>2013-06-20T10:21:44Z</time>
      </trkpt>
      <trkpt lat="44.52948" lon="2.7222">
        <ele>495.893</ele>
        <time>2013-06-20T10:22:05Z</time>
      </trkpt>
      <trkpt lat="44.52936" lon="2.72193">
        <ele>496.585</ele>
        <time>2013-06-20T10:22:28Z</time>
      </trkpt>
      <trkpt lat="44.5293" lon="2.72176">
        <ele>498.347</ele>
        <time>2013-06-20T10:22:47Z</time>
      </trkpt>
      <trkpt lat="44.52923" lon="2.72165">
        <ele>498.596</ele>
        <time>2013-06-20T10:23:10Z</time>
      </trkpt>
      <trkpt lat="44.52917" lon="2.72156">
        <ele>499.008</ele>
        <time>2013-06-20T10:23:29Z</time>
      </trkpt>
      <trkpt lat="44.52911" lon="2.72141">
        <ele>498.454</ele>
        <time>2013-06-20T10:25:59Z</time>
      </trkpt>
      <trkpt lat="44.52904" lon="2.72091">
        <ele>498.602</ele>
        <time>2013-06-20T10:26:37Z</time>
      </trkpt>
      <trkpt lat="44.52894" lon="2.72043">
        <ele>499.47</ele>
        <time>2013-06-20T10:27:12Z</time>
      </trkpt>
      <trkpt lat="44.52883" lon="2.72008">
        <ele>500.334</ele>
        <time>2013-06-20T10:27:40Z</time>
      </trkpt>
      <trkpt lat="44.52883" lon="2.71973">
        <ele>500.057</ele>
        <time>2013-06-20T10:28:03Z</time>
      </trkpt>
      <trkpt lat="44.52881" lon="2.71936">
        <ele>500.546</ele>
        <time>2013-06-20T10:28:29Z</time>
      </trkpt>
      <trkpt lat="44.52879" lon="2.71904">
        <ele>501.501</ele>
        <time>2013-06-20T10:28:53Z</time>
      </trkpt>
      <trkpt lat="44.52895" lon="2.71866">
        <ele>499.988</ele>
        <time>2013-06-20T10:29:24Z</time>
      </trkpt>
      <trkpt lat="44.52917" lon="2.71832">
        <ele>498.561</ele>
        <time>2013-06-20T10:29:56Z</time>
      </trkpt>
      <trkpt lat="44.5293" lon="2.7181">
        <ele>498.319</ele>
        <time>2013-06-20T10:30:22Z</time>
      </trkpt>
      <trkpt lat="44.52937" lon="2.71797">
        <ele>497.701</ele>
        <time>2013-06-20T10:30:38Z</time>
      </trkpt>
      <trkpt lat="44.52951" lon="2.7177">
        <ele>497.349</ele>
        <time>2013-06-20T10:31:01Z</time>
      </trkpt>
      <trkpt lat="44.52965" lon="2.71739">
        <ele>496.063</ele>
        <time>2013-06-20T10:31:27Z</time>
      </trkpt>
      <trkpt lat="44.52979" lon="2.71705">
        <ele>495.382</ele>
        <time>2013-06-20T10:31:56Z</time>
      </trkpt>
      <trkpt lat="44.5299" lon="2.71667">
        <ele>494.963</ele>
        <time>2013-06-20T10:32:24Z</time>
      </trkpt>
      <trkpt lat="44.52997" lon="2.71637">
        <ele>493.992</ele>
        <time>2013-06-20T10:32:48Z</time>
      </trkpt>
      <trkpt lat="44.53001" lon="2.71599">
        <ele>493.025</ele>
        <time>2013-06-20T10:33:15Z</time>
      </trkpt>
      <trkpt lat="44.53002" lon="2.71585">
        <ele>493.018</ele>
        <time>2013-06-20T10:33:25Z</time>
      </trkpt>
      <trkpt lat="44.53003" lon="2.71546">
        <ele>492.664</ele>
        <time>2013-06-20T10:33:52Z</time>
      </trkpt>
      <trkpt lat="44.53008" lon="2.71502">
        <ele>493.008</ele>
        <time>2013-06-20T10:34:22Z</time>
      </trkpt>
      <trkpt lat="44.53023" lon="2.71463">
        <ele>494.165</ele>
        <time>2013-06-20T10:34:53Z</time>
      </trkpt>
      <trkpt lat="44.53037" lon="2.71436">
        <ele>494.695</ele>
        <time>2013-06-20T10:35:18Z</time>
      </trkpt>
      <trkpt lat="44.53048" lon="2.71406">
        <ele>495.608</ele>
        <time>2013-06-20T10:35:41Z</time>
      </trkpt>
      <trkpt lat="44.53059" lon="2.71369">
        <ele>495.943</ele>
        <time>2013-06-20T10:36:09Z</time>
      </trkpt>
      <trkpt lat="44.53067" lon="2.71341">
        <ele>495.009</ele>
        <time>2013-06-20T10:36:31Z</time>
      </trkpt>
      <trkpt lat="44.5308" lon="2.71293">
        <ele>493.999</ele>
        <time>2013-06-20T10:37:04Z</time>
      </trkpt>
      <trkpt lat="44.53088" lon="2.71272">
        <ele>493.053</ele>
        <time>2013-06-20T10:37:28Z</time>
      </trkpt>
      <trkpt lat="44.53087" lon="2.71272">
        <ele>492.932</ele>
        <time>2013-06-20T10:38:28Z</time>
      </trkpt>
      <trkpt lat="44.53088" lon="2.71273">
        <ele>492.818</ele>
        <time>2013-06-20T10:39:40Z</time>
      </trkpt>
      <trkpt lat="44.53093" lon="2.71267">
        <ele>492.049</ele>
        <time>2013-06-20T10:39:49Z</time>
      </trkpt>
      <trkpt lat="44.53122" lon="2.71252">
        <ele>489.169</ele>
        <time>2013-06-20T10:40:21Z</time>
      </trkpt>
      <trkpt lat="44.53142" lon="2.71232">
        <ele>487.028</ele>
        <time>2013-06-20T10:40:47Z</time>
      </trkpt>
      <trkpt lat="44.53147" lon="2.71217">
        <ele>484.852</ele>
        <time>2013-06-20T10:40:59Z</time>
      </trkpt>
      <trkpt lat="44.53149" lon="2.71211">
        <ele>485.073</ele>
        <time>2013-06-20T10:41:03Z</time>
      </trkpt>
      <trkpt lat="44.53161" lon="2.71187">
        <ele>484.621</ele>
        <time>2013-06-20T10:41:30Z</time>
      </trkpt>
      <trkpt lat="44.53162" lon="2.71188">
        <ele>484.937</ele>
        <time>2013-06-20T10:42:03Z</time>
      </trkpt>
      <trkpt lat="44.53176" lon="2.71184">
        <ele>483.962</ele>
        <time>2013-06-20T10:42:27Z</time>
      </trkpt>
      <trkpt lat="44.53178" lon="2.71183">
        <ele>484.39</ele>
        <time>2013-06-20T10:42:29Z</time>
      </trkpt>
      <trkpt lat="44.53194" lon="2.71163">
        <ele>485.946</ele>
        <time>2013-06-20T10:42:52Z</time>
      </trkpt>
      <trkpt lat="44.53212" lon="2.71151">
        <ele>487.049</ele>
        <time>2013-06-20T10:43:15Z</time>
      </trkpt>
      <trkpt lat="44.5323" lon="2.71152">
        <ele>489.15</ele>
        <time>2013-06-20T10:43:37Z</time>
      </trkpt>
      <trkpt lat="44.53239" lon="2.71121">
        <ele>491.163</ele>
        <time>2013-06-20T10:44:05Z</time>
      </trkpt>
      <trkpt lat="44.53246" lon="2.71095">
        <ele>493.827</ele>
        <time>2013-06-20T10:44:27Z</time>
      </trkpt>
      <trkpt lat="44.53257" lon="2.7107">
        <ele>494.916</ele>
        <time>2013-06-20T10:44:50Z</time>
      </trkpt>
      <trkpt lat="44.53264" lon="2.71054">
        <ele>495.211</ele>
        <time>2013-06-20T10:45:03Z</time>
      </trkpt>
      <trkpt lat="44.53274" lon="2.7102">
        <ele>497.022</ele>
        <time>2013-06-20T10:45:31Z</time>
      </trkpt>
      <trkpt lat="44.53278" lon="2.71">
        <ele>497.486</ele>
        <time>2013-06-20T10:45:51Z</time>
      </trkpt>
      <trkpt lat="44.53285" lon="2.70974">
        <ele>497.466</ele>
        <time>2013-06-20T10:46:16Z</time>
      </trkpt>
      <trkpt lat="44.53301" lon="2.70974">
        <ele>497.108</ele>
        <time>2013-06-20T10:46:37Z</time>
      </trkpt>
      <trkpt lat="44.53318" lon="2.70987">
        <ele>497.499</ele>
        <time>2013-06-20T10:47:00Z</time>
      </trkpt>
      <trkpt lat="44.53323" lon="2.71002">
        <ele>497.67</ele>
        <time>2013-06-20T10:47:20Z</time>
      </trkpt>
      <trkpt lat="44.53323" lon="2.71002">
        <ele>497.638</ele>
        <time>2013-06-20T10:47:43Z</time>
      </trkpt>
      <trkpt lat="44.53324" lon="2.71001">
        <ele>497.578</ele>
        <time>2013-06-20T10:48:55Z</time>
      </trkpt>
      <trkpt lat="44.53329" lon="2.71008">
        <ele>497.827</ele>
        <time>2013-06-20T10:49:08Z</time>
      </trkpt>
      <trkpt lat="44.53337" lon="2.71018">
        <ele>497.391</ele>
        <time>2013-06-20T10:49:20Z</time>
      </trkpt>
      <trkpt lat="44.53358" lon="2.71032">
        <ele>498.061</ele>
        <time>2013-06-20T10:49:44Z</time>
      </trkpt>
      <trkpt lat="44.5338" lon="2.71045">
        <ele>498.373</ele>
        <time>2013-06-20T10:50:08Z</time>
      </trkpt>
      <trkpt lat="44.53405" lon="2.7106">
        <ele>500.037</ele>
        <time>2013-06-20T10:50:35Z</time>
      </trkpt>
      <trkpt lat="44.53422" lon="2.71069">
        <ele>501.016</ele>
        <time>2013-06-20T10:50:58Z</time>
      </trkpt>
      <trkpt lat="44.5343" lon="2.71077">
        <ele>500.856</ele>
        <time>2013-06-20T10:51:18Z</time>
      </trkpt>
      <trkpt lat="44.53448" lon="2.71085">
        <ele>497.842</ele>
        <time>2013-06-20T10:51:38Z</time>
      </trkpt>
      <trkpt lat="44.53475" lon="2.71088">
        <ele>495.934</ele>
        <time>2013-06-20T10:52:05Z</time>
      </trkpt>
      <trkpt lat="44.53502" lon="2.71087">
        <ele>494.187</ele>
        <time>2013-06-20T10:52:32Z</time>
      </trkpt>
      <trkpt lat="44.53533" lon="2.71091">
        <ele>492.914</ele>
        <time>2013-06-20T10:53:04Z</time>
      </trkpt>
      <trkpt lat="44.5356" lon="2.71089">
        <ele>490.832</ele>
        <time>2013-06-20T10:53:31Z</time>
      </trkpt>
      <trkpt lat="44.53578" lon="2.7109">
        <ele>490.161</ele>
        <time>2013-06-20T10:53:54Z</time>
      </trkpt>
      <trkpt lat="44.53604" lon="2.71091">
        <ele>489.842</ele>
        <time>2013-06-20T10:54:20Z</time>
      </trkpt>
      <trkpt lat="44.53621" lon="2.71093">
        <ele>489.747</ele>
        <time>2013-06-20T10:54:42Z</time>
      </trkpt>
      <trkpt lat="44.53632" lon="2.71093">
        <ele>490.241</ele>
        <time>2013-06-20T10:55:03Z</time>
      </trkpt>
      <trkpt lat="44.53633" lon="2.71092">
        <ele>489.701</ele>
        <time>2013-06-20T10:55:32Z</time>
      </trkpt>
      <trkpt lat="44.53624" lon="2.7109">
        <ele>489.922</ele>
        <time>2013-06-20T10:56:02Z</time>
      </trkpt>
      <trkpt lat="44.53629" lon="2.71091">
        <ele>489.969</ele>
        <time>2013-06-20T10:56:56Z</time>
      </trkpt>
      <trkpt lat="44.53638" lon="2.71092">
        <ele>489.933</ele>
        <time>2013-06-20T10:58:12Z</time>
      </trkpt>
      <trkpt lat="44.53661" lon="2.71092">
        <ele>491.663</ele>
        <time>2013-06-20T10:58:38Z</time>
      </trkpt>
      <trkpt lat="44.53677" lon="2.71092">
        <ele>492.901</ele>
        <time>2013-06-20T10:58:57Z</time>
      </trkpt>
      <trkpt lat="44.53691" lon="2.71102">
        <ele>493.951</ele>
        <time>2013-06-20T10:59:17Z</time>
      </trkpt>
      <trkpt lat="44.53705" lon="2.71111">
        <ele>496.597</ele>
        <time>2013-06-20T10:59:35Z</time>
      </trkpt>
      <trkpt lat="44.53723" lon="2.71118">
        <ele>497.933</ele>
        <time>2013-06-20T10:59:56Z</time>
      </trkpt>
      <trkpt lat="44.53744" lon="2.71122">
        <ele>500.423</ele>
        <time>2013-06-20T11:00:19Z</time>
      </trkpt>
      <trkpt lat="44.53768" lon="2.71121">
        <ele>501.872</ele>
        <time>2013-06-20T11:00:43Z</time>
      </trkpt>
      <trkpt lat="44.53779" lon="2.71117">
        <ele>502.006</ele>
        <time>2013-06-20T11:00:59Z</time>
      </trkpt>
      <trkpt lat="44.53796" lon="2.71105">
        <ele>502.056</ele>
        <time>2013-06-20T11:01:21Z</time>
      </trkpt>
      <trkpt lat="44.53812" lon="2.7109">
        <ele>500.673</ele>
        <time>2013-06-20T11:01:43Z</time>
      </trkpt>
      <trkpt lat="44.53827" lon="2.71075">
        <ele>498.928</ele>
        <time>2013-06-20T11:02:03Z</time>
      </trkpt>
      <trkpt lat="44.53841" lon="2.71062">
        <ele>497.842</ele>
        <time>2013-06-20T11:02:23Z</time>
      </trkpt>
      <trkpt lat="44.53857" lon="2.71039">
        <ele>496.979</ele>
        <time>2013-06-20T11:02:47Z</time>
      </trkpt>
      <trkpt lat="44.53867" lon="2.71025">
        <ele>496.119</ele>
        <time>2013-06-20T11:03:05Z</time>
      </trkpt>
      <trkpt lat="44.53879" lon="2.71013">
        <ele>493.514</ele>
        <time>2013-06-20T11:03:26Z</time>
      </trkpt>
      <trkpt lat="44.53888" lon="2.71008">
        <ele>492.784</ele>
        <time>2013-06-20T11:03:44Z</time>
      </trkpt>
      <trkpt lat="44.539" lon="2.70997">
        <ele>492.441</ele>
        <time>2013-06-20T11:04:03Z</time>
      </trkpt>
      <trkpt lat="44.53907" lon="2.70987">
        <ele>492</ele>
        <time>2013-06-20T11:04:20Z</time>
      </trkpt>
      <trkpt lat="44.53914" lon="2.70978">
        <ele>490.964</ele>
        <time>2013-06-20T11:04:36Z</time>
      </trkpt>
      <trkpt lat="44.53919" lon="2.70968">
        <ele>490.574</ele>
        <time>2013-06-20T11:05:06Z</time>
      </trkpt>
      <trkpt lat="44.53924" lon="2.70966">
        <ele>490.434</ele>
        <time>2013-06-20T11:05:27Z</time>
      </trkpt>
      <trkpt lat="44.53924" lon="2.70966">
        <ele>490.31</ele>
        <time>2013-06-20T11:05:52Z</time>
      </trkpt>
      <trkpt lat="44.53922" lon="2.70965">
        <ele>489.954</ele>
        <time>2013-06-20T11:06:46Z</time>
      </trkpt>
      <trkpt lat="44.53926" lon="2.70958">
        <ele>489.548</ele>
        <time>2013-06-20T11:07:13Z</time>
      </trkpt>
      <trkpt lat="44.53934" lon="2.70947">
        <ele>488.536</ele>
        <time>2013-06-20T11:07:28Z</time>
      </trkpt>
      <trkpt lat="44.5394" lon="2.70932">
        <ele>487.479</ele>
        <time>2013-06-20T11:07:45Z</time>
      </trkpt>
      <trkpt lat="44.53945" lon="2.70917">
        <ele>486.109</ele>
        <time>2013-06-20T11:08:02Z</time>
      </trkpt>
      <trkpt lat="44.53947" lon="2.70901">
        <ele>485.092</ele>
        <time>2013-06-20T11:08:16Z</time>
      </trkpt>
      <trkpt lat="44.5395" lon="2.70883">
        <ele>483.177</ele>
        <time>2013-06-20T11:08:32Z</time>
      </trkpt>
      <trkpt lat="44.5395" lon="2.70869">
        <ele>481.884</ele>
        <time>2013-06-20T11:08:47Z</time>
      </trkpt>
      <trkpt lat="44.53952" lon="2.70858">
        <ele>480.769</ele>
        <time>2013-06-20T11:09:01Z</time>
      </trkpt>
      <trkpt lat="44.53954" lon="2.70842">
        <ele>479.001</ele>
        <time>2013-06-20T11:09:19Z</time>
      </trkpt>
      <trkpt lat="44.53955" lon="2.70828">
        <ele>478.127</ele>
        <time>2013-06-20T11:09:31Z</time>
      </trkpt>
      <trkpt lat="44.53956" lon="2.70816">
        <ele>475.802</ele>
        <time>2013-06-20T11:09:45Z</time>
      </trkpt>
      <trkpt lat="44.5396" lon="2.70804">
        <ele>473.655</ele>
        <time>2013-06-20T11:10:02Z</time>
      </trkpt>
      <trkpt lat="44.53968" lon="2.70801">
        <ele>472.76</ele>
        <time>2013-06-20T11:10:15Z</time>
      </trkpt>
      <trkpt lat="44.53976" lon="2.708">
        <ele>470.605</ele>
        <time>2013-06-20T11:10:33Z</time>
      </trkpt>
      <trkpt lat="44.53983" lon="2.70803">
        <ele>468.583</ele>
        <time>2013-06-20T11:10:49Z</time>
      </trkpt>
      <trkpt lat="44.53991" lon="2.70809">
        <ele>466.623</ele>
        <time>2013-06-20T11:11:06Z</time>
      </trkpt>
      <trkpt lat="44.53999" lon="2.70817">
        <ele>464.732</ele>
        <time>2013-06-20T11:11:24Z</time>
      </trkpt>
      <trkpt lat="44.54007" lon="2.70823">
        <ele>463.624</ele>
        <time>2013-06-20T11:11:41Z</time>
      </trkpt>
      <trkpt lat="44.54013" lon="2.70836">
        <ele>461.455</ele>
        <time>2013-06-20T11:12:00Z</time>
      </trkpt>
      <trkpt lat="44.54017" lon="2.70846">
        <ele>459.803</ele>
        <time>2013-06-20T11:12:14Z</time>
      </trkpt>
      <trkpt lat="44.54022" lon="2.70855">
        <ele>457.713</ele>
        <time>2013-06-20T11:12:28Z</time>
      </trkpt>
      <trkpt lat="44.54027" lon="2.70861">
        <ele>455.336</ele>
        <time>2013-06-20T11:12:48Z</time>
      </trkpt>
      <trkpt lat="44.54031" lon="2.70866">
        <ele>452.243</ele>
        <time>2013-06-20T11:13:07Z</time>
      </trkpt>
      <trkpt lat="44.54033" lon="2.70878">
        <ele>451.639</ele>
        <time>2013-06-20T11:13:22Z</time>
      </trkpt>
      <trkpt lat="44.54034" lon="2.70892">
        <ele>449.179</ele>
        <time>2013-06-20T11:13:38Z</time>
      </trkpt>
      <trkpt lat="44.54036" lon="2.70903">
        <ele>447.855</ele>
        <time>2013-06-20T11:13:51Z</time>
      </trkpt>
      <trkpt lat="44.54041" lon="2.70912">
        <ele>446.612</ele>
        <time>2013-06-20T11:14:10Z</time>
      </trkpt>
      <trkpt lat="44.54047" lon="2.70935">
        <ele>444.288</ele>
        <time>2013-06-20T11:14:37Z</time>
      </trkpt>
      <trkpt lat="44.5405" lon="2.70952">
        <ele>442.445</ele>
        <time>2013-06-20T11:14:54Z</time>
      </trkpt>
      <trkpt lat="44.54054" lon="2.70968">
        <ele>441.7</ele>
        <time>2013-06-20T11:15:07Z</time>
      </trkpt>
      <trkpt lat="44.54054" lon="2.70981">
        <ele>440.211</ele>
        <time>2013-06-20T11:15:21Z</time>
      </trkpt>
      <trkpt lat="44.54057" lon="2.70997">
        <ele>440.172</ele>
        <time>2013-06-20T11:16:22Z</time>
      </trkpt>
      <trkpt lat="44.54056" lon="2.70978">
        <ele>440.103</ele>
        <time>2013-06-20T11:17:01Z</time>
      </trkpt>
      <trkpt lat="44.5406" lon="2.70986">
        <ele>440.948</ele>
        <time>2013-06-20T11:17:32Z</time>
      </trkpt>
      <trkpt lat="44.54065" lon="2.70992">
        <ele>441.135</ele>
        <time>2013-06-20T11:18:19Z</time>
      </trkpt>
      <trkpt lat="44.54059" lon="2.70994">
        <ele>440.933</ele>
        <time>2013-06-20T11:18:56Z</time>
      </trkpt>
      <trkpt lat="44.54055" lon="2.70997">
        <ele>441.339</ele>
        <time>2013-06-20T11:19:43Z</time>
      </trkpt>
      <trkpt lat="44.54062" lon="2.70994">
        <ele>441.431</ele>
        <time>2013-06-20T11:20:24Z</time>
      </trkpt>
      <trkpt lat="44.54064" lon="2.70985">
        <ele>441.417</ele>
        <time>2013-06-20T11:21:02Z</time>
      </trkpt>
      <trkpt lat="44.54065" lon="2.70972">
        <ele>441.304</ele>
        <time>2013-06-20T11:21:14Z</time>
      </trkpt>
      <trkpt lat="44.54066" lon="2.70956">
        <ele>440.921</ele>
        <time>2013-06-20T11:21:26Z</time>
      </trkpt>
      <trkpt lat="44.54066" lon="2.70943">
        <ele>441.514</ele>
        <time>2013-06-20T11:21:37Z</time>
      </trkpt>
      <trkpt lat="44.54071" lon="2.70926">
        <ele>441.943</ele>
        <time>2013-06-20T11:21:50Z</time>
      </trkpt>
      <trkpt lat="44.54076" lon="2.70914">
        <ele>441.098</ele>
        <time>2013-06-20T11:22:05Z</time>
      </trkpt>
      <trkpt lat="44.5408" lon="2.70905">
        <ele>439.023</ele>
        <time>2013-06-20T11:22:23Z</time>
      </trkpt>
      <trkpt lat="44.54086" lon="2.70892">
        <ele>436.201</ele>
        <time>2013-06-20T11:22:41Z</time>
      </trkpt>
      <trkpt lat="44.54096" lon="2.70871">
        <ele>434.801</ele>
        <time>2013-06-20T11:23:18Z</time>
      </trkpt>
      <trkpt lat="44.54095" lon="2.7086">
        <ele>432.69</ele>
        <time>2013-06-20T11:23:35Z</time>
      </trkpt>
      <trkpt lat="44.54096" lon="2.70847">
        <ele>431.527</ele>
        <time>2013-06-20T11:23:48Z</time>
      </trkpt>
      <trkpt lat="44.54095" lon="2.70834">
        <ele>429.635</ele>
        <time>2013-06-20T11:24:02Z</time>
      </trkpt>
      <trkpt lat="44.54095" lon="2.70814">
        <ele>427.644</ele>
        <time>2013-06-20T11:24:18Z</time>
      </trkpt>
      <trkpt lat="44.54091" lon="2.70797">
        <ele>426.082</ele>
        <time>2013-06-20T11:24:34Z</time>
      </trkpt>
      <trkpt lat="44.54088" lon="2.70782">
        <ele>424.482</ele>
        <time>2013-06-20T11:24:51Z</time>
      </trkpt>
      <trkpt lat="44.54086" lon="2.70769">
        <ele>423.065</ele>
        <time>2013-06-20T11:25:07Z</time>
      </trkpt>
      <trkpt lat="44.54081" lon="2.7075">
        <ele>422.509</ele>
        <time>2013-06-20T11:25:22Z</time>
      </trkpt>
      <trkpt lat="44.54075" lon="2.70737">
        <ele>420.888</ele>
        <time>2013-06-20T11:25:38Z</time>
      </trkpt>
      <trkpt lat="44.54069" lon="2.70722">
        <ele>419.782</ele>
        <time>2013-06-20T11:25:56Z</time>
      </trkpt>
      <trkpt lat="44.54067" lon="2.70711">
        <ele>419.345</ele>
        <time>2013-06-20T11:26:13Z</time>
      </trkpt>
      <trkpt lat="44.54068" lon="2.70699">
        <ele>417.808</ele>
        <time>2013-06-20T11:26:27Z</time>
      </trkpt>
      <trkpt lat="44.54068" lon="2.70686">
        <ele>417.395</ele>
        <time>2013-06-20T11:26:42Z</time>
      </trkpt>
      <trkpt lat="44.54069" lon="2.70675">
        <ele>415.445</ele>
        <time>2013-06-20T11:26:56Z</time>
      </trkpt>
      <trkpt lat="44.54069" lon="2.7066">
        <ele>413.913</ele>
        <time>2013-06-20T11:27:12Z</time>
      </trkpt>
      <trkpt lat="44.54068" lon="2.70643">
        <ele>411.882</ele>
        <time>2013-06-20T11:27:29Z</time>
      </trkpt>
      <trkpt lat="44.54068" lon="2.70633">
        <ele>411.604</ele>
        <time>2013-06-20T11:27:44Z</time>
      </trkpt>
      <trkpt lat="44.54064" lon="2.70619">
        <ele>410.458</ele>
        <time>2013-06-20T11:28:01Z</time>
      </trkpt>
      <trkpt lat="44.54064" lon="2.70607">
        <ele>408.098</ele>
        <time>2013-06-20T11:28:18Z</time>
      </trkpt>
      <trkpt lat="44.5406" lon="2.70597">
        <ele>407.923</ele>
        <time>2013-06-20T11:28:34Z</time>
      </trkpt>
      <trkpt lat="44.54062" lon="2.70595">
        <ele>407.598</ele>
        <time>2013-06-20T11:28:59Z</time>
      </trkpt>
      <trkpt lat="44.54061" lon="2.706">
        <ele>408.144</ele>
        <time>2013-06-20T11:29:34Z</time>
      </trkpt>
      <trkpt lat="44.54059" lon="2.70606">
        <ele>408.209</ele>
        <time>2013-06-20T11:30:00Z</time>
      </trkpt>
      <trkpt lat="44.5406" lon="2.70602">
        <ele>408.583</ele>
        <time>2013-06-20T11:30:53Z</time>
      </trkpt>
      <trkpt lat="44.5406" lon="2.70601">
        <ele>409.085</ele>
        <time>2013-06-20T11:31:19Z</time>
      </trkpt>
      <trkpt lat="44.54067" lon="2.70604">
        <ele>407.086</ele>
        <time>2013-06-20T11:31:43Z</time>
      </trkpt>
      <trkpt lat="44.54075" lon="2.70594">
        <ele>406.416</ele>
        <time>2013-06-20T11:31:58Z</time>
      </trkpt>
      <trkpt lat="44.5408" lon="2.70581">
        <ele>406.126</ele>
        <time>2013-06-20T11:32:11Z</time>
      </trkpt>
      <trkpt lat="44.5409" lon="2.70569">
        <ele>405.316</ele>
        <time>2013-06-20T11:32:31Z</time>
      </trkpt>
      <trkpt lat="44.54106" lon="2.70564">
        <ele>402.125</ele>
        <time>2013-06-20T11:32:52Z</time>
      </trkpt>
      <trkpt lat="44.5412" lon="2.70554">
        <ele>398.806</ele>
        <time>2013-06-20T11:33:13Z</time>
      </trkpt>
      <trkpt lat="44.54127" lon="2.70531">
        <ele>395.8</ele>
        <time>2013-06-20T11:33:36Z</time>
      </trkpt>
      <trkpt lat="44.54131" lon="2.70499">
        <ele>393.168</ele>
        <time>2013-06-20T11:34:01Z</time>
      </trkpt>
      <trkpt lat="44.54138" lon="2.70458">
        <ele>391.499</ele>
        <time>2013-06-20T11:34:31Z</time>
      </trkpt>
      <trkpt lat="44.54143" lon="2.70427">
        <ele>390.291</ele>
        <time>2013-06-20T11:34:55Z</time>
      </trkpt>
      <trkpt lat="44.54148" lon="2.70396">
        <ele>389.841</ele>
        <time>2013-06-20T11:35:20Z</time>
      </trkpt>
      <trkpt lat="44.54147" lon="2.70375">
        <ele>388.607</ele>
        <time>2013-06-20T11:35:41Z</time>
      </trkpt>
      <trkpt lat="44.54155" lon="2.70365">
        <ele>388.073</ele>
        <time>2013-06-20T11:36:00Z</time>
      </trkpt>
      <trkpt lat="44.54156" lon="2.70363">
        <ele>387.775</ele>
        <time>2013-06-20T11:36:53Z</time>
      </trkpt>
      <trkpt lat="44.54153" lon="2.70357">
        <ele>387.077</ele>
        <time>2013-06-20T11:37:12Z</time>
      </trkpt>
      <trkpt lat="44.54155" lon="2.70362">
        <ele>386.158</ele>
        <time>2013-06-20T11:37:40Z</time>
      </trkpt>
      <trkpt lat="44.54154" lon="2.70363">
        <ele>385.737</ele>
        <time>2013-06-20T11:40:44Z</time>
      </trkpt>
      <trkpt lat="44.54154" lon="2.70364">
        <ele>384.953</ele>
        <time>2013-06-20T11:41:13Z</time>
      </trkpt>
      <trkpt lat="44.54154" lon="2.70363">
        <ele>384.916</ele>
        <time>2013-06-20T11:41:14Z</time>
      </trkpt>
      <trkpt lat="44.54153" lon="2.70363">
        <ele>385.304</ele>
        <time>2013-06-20T11:41:36Z</time>
      </trkpt>
      <trkpt lat="44.54154" lon="2.70363">
        <ele>384.114</ele>
        <time>2013-06-20T11:41:59Z</time>
      </trkpt>
      <trkpt lat="44.5416" lon="2.70359">
        <ele>384.342</ele>
        <time>2013-06-20T11:42:40Z</time>
      </trkpt>
      <trkpt lat="44.54157" lon="2.70356">
        <ele>382.814</ele>
        <time>2013-06-20T11:50:52Z</time>
      </trkpt>
      <trkpt lat="44.54156" lon="2.70358">
        <ele>382.023</ele>
        <time>2013-06-20T11:53:11Z</time>
      </trkpt>
      <trkpt lat="44.54156" lon="2.70359">
        <ele>381.782</ele>
        <time>2013-06-20T11:55:08Z</time>
      </trkpt>
      <trkpt lat="44.54157" lon="2.70361">
        <ele>381.529</ele>
        <time>2013-06-20T11:56:23Z</time>
      </trkpt>
      <trkpt lat="44.54154" lon="2.70367">
        <ele>381.257</ele>
        <time>2013-06-20T11:57:15Z</time>
      </trkpt>
      <trkpt lat="44.54153" lon="2.70364">
        <ele>382.499</ele>
        <time>2013-06-20T12:00:15Z</time>
      </trkpt>
      <trkpt lat="44.54152" lon="2.70362">
        <ele>381.904</ele>
        <time>2013-06-20T12:00:59Z</time>
      </trkpt>
      <trkpt lat="44.54087" lon="2.70397">
        <ele>378.673</ele>
        <time>2013-06-20T12:14:29Z</time>
      </trkpt>
      <trkpt lat="44.54108" lon="2.70397">
        <ele>375.284</ele>
        <time>2013-06-20T12:16:53Z</time>
      </trkpt>
      <trkpt lat="44.54154" lon="2.70366">
        <ele>374.634</ele>
        <time>2013-06-20T12:23:17Z</time>
      </trkpt>
      <trkpt lat="44.54155" lon="2.70363">
        <ele>373.931</ele>
        <time>2013-06-20T12:24:11Z</time>
      </trkpt>
      <trkpt lat="44.54153" lon="2.70364">
        <ele>374.145</ele>
        <time>2013-06-20T12:24:40Z</time>
      </trkpt>
      <trkpt lat="44.54149" lon="2.70367">
        <ele>373.957</ele>
        <time>2013-06-20T12:24:53Z</time>
      </trkpt>
      <trkpt lat="44.54136" lon="2.70377">
        <ele>374.498</ele>
        <time>2013-06-20T12:25:11Z</time>
      </trkpt>
      <trkpt lat="44.5411" lon="2.70376">
        <ele>372.163</ele>
        <time>2013-06-20T12:25:38Z</time>
      </trkpt>
      <trkpt lat="44.54073" lon="2.70372">
        <ele>371.125</ele>
        <time>2013-06-20T12:26:12Z</time>
      </trkpt>
      <trkpt lat="44.54043" lon="2.7037">
        <ele>370.918</ele>
        <time>2013-06-20T12:26:40Z</time>
      </trkpt>
      <trkpt lat="44.54013" lon="2.70367">
        <ele>368.683</ele>
        <time>2013-06-20T12:27:09Z</time>
      </trkpt>
      <trkpt lat="44.53985" lon="2.70353">
        <ele>365.64</ele>
        <time>2013-06-20T12:27:38Z</time>
      </trkpt>
      <trkpt lat="44.53967" lon="2.70336">
        <ele>362.74</ele>
        <time>2013-06-20T12:28:00Z</time>
      </trkpt>
      <trkpt lat="44.53955" lon="2.70316">
        <ele>361.401</ele>
        <time>2013-06-20T12:28:19Z</time>
      </trkpt>
      <trkpt lat="44.53946" lon="2.70287">
        <ele>360.66</ele>
        <time>2013-06-20T12:28:40Z</time>
      </trkpt>
      <trkpt lat="44.53949" lon="2.70257">
        <ele>361.939</ele>
        <time>2013-06-20T12:29:03Z</time>
      </trkpt>
      <trkpt lat="44.53949" lon="2.70251">
        <ele>361.498</ele>
        <time>2013-06-20T12:29:07Z</time>
      </trkpt>
      <trkpt lat="44.53936" lon="2.70214">
        <ele>364.461</ele>
        <time>2013-06-20T12:29:35Z</time>
      </trkpt>
      <trkpt lat="44.53915" lon="2.70182">
        <ele>366.103</ele>
        <time>2013-06-20T12:30:04Z</time>
      </trkpt>
      <trkpt lat="44.53896" lon="2.70159">
        <ele>366.779</ele>
        <time>2013-06-20T12:30:28Z</time>
      </trkpt>
      <trkpt lat="44.53879" lon="2.70137">
        <ele>366.785</ele>
        <time>2013-06-20T12:30:50Z</time>
      </trkpt>
      <trkpt lat="44.53861" lon="2.70116">
        <ele>366.3</ele>
        <time>2013-06-20T12:31:12Z</time>
      </trkpt>
      <trkpt lat="44.53842" lon="2.70086">
        <ele>365.766</ele>
        <time>2013-06-20T12:31:39Z</time>
      </trkpt>
      <trkpt lat="44.53828" lon="2.70058">
        <ele>364.582</ele>
        <time>2013-06-20T12:32:03Z</time>
      </trkpt>
      <trkpt lat="44.53836" lon="2.70029">
        <ele>363.474</ele>
        <time>2013-06-20T12:32:27Z</time>
      </trkpt>
      <trkpt lat="44.53851" lon="2.69988">
        <ele>362.206</ele>
        <time>2013-06-20T12:32:59Z</time>
      </trkpt>
      <trkpt lat="44.53866" lon="2.69951">
        <ele>362.371</ele>
        <time>2013-06-20T12:33:28Z</time>
      </trkpt>
      <trkpt lat="44.53883" lon="2.69908">
        <ele>361.989</ele>
        <time>2013-06-20T12:34:02Z</time>
      </trkpt>
      <trkpt lat="44.539" lon="2.69864">
        <ele>360.523</ele>
        <time>2013-06-20T12:34:36Z</time>
      </trkpt>
      <trkpt lat="44.53915" lon="2.69826">
        <ele>360.291</ele>
        <time>2013-06-20T12:35:06Z</time>
      </trkpt>
      <trkpt lat="44.5393" lon="2.69787">
        <ele>359.381</ele>
        <time>2013-06-20T12:35:36Z</time>
      </trkpt>
      <trkpt lat="44.53939" lon="2.69752">
        <ele>358.958</ele>
        <time>2013-06-20T12:36:04Z</time>
      </trkpt>
      <trkpt lat="44.53953" lon="2.69708">
        <ele>357.669</ele>
        <time>2013-06-20T12:36:38Z</time>
      </trkpt>
      <trkpt lat="44.53965" lon="2.69667">
        <ele>357.235</ele>
        <time>2013-06-20T12:37:09Z</time>
      </trkpt>
      <trkpt lat="44.5397" lon="2.69657">
        <ele>356.861</ele>
        <time>2013-06-20T12:37:16Z</time>
      </trkpt>
      <trkpt lat="44.53982" lon="2.69617">
        <ele>356.655</ele>
        <time>2013-06-20T12:37:46Z</time>
      </trkpt>
      <trkpt lat="44.53997" lon="2.69574">
        <ele>356.085</ele>
        <time>2013-06-20T12:38:20Z</time>
      </trkpt>
      <trkpt lat="44.54014" lon="2.69532">
        <ele>355.381</ele>
        <time>2013-06-20T12:38:55Z</time>
      </trkpt>
      <trkpt lat="44.54025" lon="2.69503">
        <ele>354.063</ele>
        <time>2013-06-20T12:39:20Z</time>
      </trkpt>
      <trkpt lat="44.54029" lon="2.69467">
        <ele>354.281</ele>
        <time>2013-06-20T12:39:47Z</time>
      </trkpt>
      <trkpt lat="44.54034" lon="2.69424">
        <ele>354.093</ele>
        <time>2013-06-20T12:40:17Z</time>
      </trkpt>
      <trkpt lat="44.54039" lon="2.69387">
        <ele>353.077</ele>
        <time>2013-06-20T12:40:45Z</time>
      </trkpt>
      <trkpt lat="44.54043" lon="2.69347">
        <ele>353.289</ele>
        <time>2013-06-20T12:41:13Z</time>
      </trkpt>
      <trkpt lat="44.54048" lon="2.69303">
        <ele>352.317</ele>
        <time>2013-06-20T12:41:43Z</time>
      </trkpt>
      <trkpt lat="44.54053" lon="2.69256">
        <ele>351.468</ele>
        <time>2013-06-20T12:42:16Z</time>
      </trkpt>
      <trkpt lat="44.54058" lon="2.69207">
        <ele>350.331</ele>
        <time>2013-06-20T12:42:50Z</time>
      </trkpt>
      <trkpt lat="44.54062" lon="2.69173">
        <ele>349.984</ele>
        <time>2013-06-20T12:43:17Z</time>
      </trkpt>
      <trkpt lat="44.54063" lon="2.69171">
        <ele>350.176</ele>
        <time>2013-06-20T12:43:33Z</time>
      </trkpt>
      <trkpt lat="44.54057" lon="2.69169">
        <ele>350.524</ele>
        <time>2013-06-20T12:44:30Z</time>
      </trkpt>
      <trkpt lat="44.54054" lon="2.69166">
        <ele>350.384</ele>
        <time>2013-06-20T12:44:34Z</time>
      </trkpt>
      <trkpt lat="44.54032" lon="2.6914">
        <ele>349.895</ele>
        <time>2013-06-20T12:45:01Z</time>
      </trkpt>
      <trkpt lat="44.54008" lon="2.69112">
        <ele>349.971</ele>
        <time>2013-06-20T12:45:30Z</time>
      </trkpt>
      <trkpt lat="44.53981" lon="2.69085">
        <ele>349.518</ele>
        <time>2013-06-20T12:46:03Z</time>
      </trkpt>
      <trkpt lat="44.53958" lon="2.69072">
        <ele>349.393</ele>
        <time>2013-06-20T12:46:29Z</time>
      </trkpt>
      <trkpt lat="44.53932" lon="2.69058">
        <ele>350.284</ele>
        <time>2013-06-20T12:46:55Z</time>
      </trkpt>
      <trkpt lat="44.53896" lon="2.69036">
        <ele>350.69</ele>
        <time>2013-06-20T12:47:30Z</time>
      </trkpt>
      <trkpt lat="44.53866" lon="2.69018">
        <ele>351.213</ele>
        <time>2013-06-20T12:47:59Z</time>
      </trkpt>
      <trkpt lat="44.53837" lon="2.69001">
        <ele>350.653</ele>
        <time>2013-06-20T12:48:29Z</time>
      </trkpt>
      <trkpt lat="44.53802" lon="2.68981">
        <ele>351.711</ele>
        <time>2013-06-20T12:49:03Z</time>
      </trkpt>
      <trkpt lat="44.53786" lon="2.68974">
        <ele>353.315</ele>
        <time>2013-06-20T12:49:25Z</time>
      </trkpt>
      <trkpt lat="44.53785" lon="2.68975">
        <ele>353.249</ele>
        <time>2013-06-20T12:49:46Z</time>
      </trkpt>
      <trkpt lat="44.53788" lon="2.68966">
        <ele>353.816</ele>
        <time>2013-06-20T12:50:35Z</time>
      </trkpt>
      <trkpt lat="44.53772" lon="2.68953">
        <ele>355.046</ele>
        <time>2013-06-20T12:50:59Z</time>
      </trkpt>
      <trkpt lat="44.53765" lon="2.68925">
        <ele>354.606</ele>
        <time>2013-06-20T12:51:23Z</time>
      </trkpt>
      <trkpt lat="44.5377" lon="2.68919">
        <ele>354.337</ele>
        <time>2013-06-20T12:51:38Z</time>
      </trkpt>
      <trkpt lat="44.53791" lon="2.6889">
        <ele>353.711</ele>
        <time>2013-06-20T12:52:08Z</time>
      </trkpt>
      <trkpt lat="44.53811" lon="2.68857">
        <ele>353.932</ele>
        <time>2013-06-20T12:52:38Z</time>
      </trkpt>
      <trkpt lat="44.53831" lon="2.6882">
        <ele>353.33</ele>
        <time>2013-06-20T12:53:08Z</time>
      </trkpt>
      <trkpt lat="44.53849" lon="2.68786">
        <ele>353.067</ele>
        <time>2013-06-20T12:53:38Z</time>
      </trkpt>
      <trkpt lat="44.53866" lon="2.68763">
        <ele>353.987</ele>
        <time>2013-06-20T12:54:02Z</time>
      </trkpt>
      <trkpt lat="44.53896" lon="2.68743">
        <ele>353.433</ele>
        <time>2013-06-20T12:54:31Z</time>
      </trkpt>
      <trkpt lat="44.53917" lon="2.68726">
        <ele>352.882</ele>
        <time>2013-06-20T12:54:54Z</time>
      </trkpt>
      <trkpt lat="44.53943" lon="2.68709">
        <ele>353.186</ele>
        <time>2013-06-20T12:55:22Z</time>
      </trkpt>
      <trkpt lat="44.53945" lon="2.68707">
        <ele>353.273</ele>
        <time>2013-06-20T12:55:25Z</time>
      </trkpt>
      <trkpt lat="44.53967" lon="2.68686">
        <ele>352.791</ele>
        <time>2013-06-20T12:55:48Z</time>
      </trkpt>
      <trkpt lat="44.53987" lon="2.68672">
        <ele>352.658</ele>
        <time>2013-06-20T12:56:14Z</time>
      </trkpt>
      <trkpt lat="44.54009" lon="2.68655">
        <ele>352.269</ele>
        <time>2013-06-20T12:56:39Z</time>
      </trkpt>
      <trkpt lat="44.54029" lon="2.6863">
        <ele>352.555</ele>
        <time>2013-06-20T12:57:06Z</time>
      </trkpt>
      <trkpt lat="44.5405" lon="2.68596">
        <ele>353.396</ele>
        <time>2013-06-20T12:57:37Z</time>
      </trkpt>
      <trkpt lat="44.54074" lon="2.68562">
        <ele>353.031</ele>
        <time>2013-06-20T12:58:07Z</time>
      </trkpt>
      <trkpt lat="44.54085" lon="2.68548">
        <ele>352.644</ele>
        <time>2013-06-20T12:58:27Z</time>
      </trkpt>
      <trkpt lat="44.54106" lon="2.68509">
        <ele>351.358</ele>
        <time>2013-06-20T12:58:56Z</time>
      </trkpt>
      <trkpt lat="44.54131" lon="2.68475">
        <ele>349.631</ele>
        <time>2013-06-20T12:59:24Z</time>
      </trkpt>
      <trkpt lat="44.54152" lon="2.68453">
        <ele>348.858</ele>
        <time>2013-06-20T12:59:47Z</time>
      </trkpt>
      <trkpt lat="44.54172" lon="2.68433">
        <ele>347.858</ele>
        <time>2013-06-20T13:00:18Z</time>
      </trkpt>
      <trkpt lat="44.54192" lon="2.6841">
        <ele>347.71</ele>
        <time>2013-06-20T13:00:46Z</time>
      </trkpt>
      <trkpt lat="44.54209" lon="2.68387">
        <ele>347.662</ele>
        <time>2013-06-20T13:01:13Z</time>
      </trkpt>
      <trkpt lat="44.54222" lon="2.68369">
        <ele>347.689</ele>
        <time>2013-06-20T13:01:31Z</time>
      </trkpt>
      <trkpt lat="44.54237" lon="2.68338">
        <ele>348.299</ele>
        <time>2013-06-20T13:01:55Z</time>
      </trkpt>
      <trkpt lat="44.5425" lon="2.68317">
        <ele>347.898</ele>
        <time>2013-06-20T13:02:10Z</time>
      </trkpt>
      <trkpt lat="44.54267" lon="2.68312">
        <ele>347.221</ele>
        <time>2013-06-20T13:02:30Z</time>
      </trkpt>
      <trkpt lat="44.54283" lon="2.68317">
        <ele>346.062</ele>
        <time>2013-06-20T13:02:49Z</time>
      </trkpt>
      <trkpt lat="44.543" lon="2.68323">
        <ele>345.196</ele>
        <time>2013-06-20T13:03:10Z</time>
      </trkpt>
      <trkpt lat="44.54304" lon="2.68324">
        <ele>345.089</ele>
        <time>2013-06-20T13:03:34Z</time>
      </trkpt>
      <trkpt lat="44.54299" lon="2.68332">
        <ele>345.437</ele>
        <time>2013-06-20T13:04:01Z</time>
      </trkpt>
      <trkpt lat="44.54302" lon="2.68328">
        <ele>345.448</ele>
        <time>2013-06-20T13:04:26Z</time>
      </trkpt>
      <trkpt lat="44.54306" lon="2.68322">
        <ele>345.491</ele>
        <time>2013-06-20T13:04:49Z</time>
      </trkpt>
      <trkpt lat="44.54301" lon="2.68319">
        <ele>346.127</ele>
        <time>2013-06-20T13:06:32Z</time>
      </trkpt>
      <trkpt lat="44.54316" lon="2.68315">
        <ele>345.759</ele>
        <time>2013-06-20T13:08:03Z</time>
      </trkpt>
      <trkpt lat="44.54315" lon="2.68313">
        <ele>345.92</ele>
        <time>2013-06-20T13:08:32Z</time>
      </trkpt>
      <trkpt lat="44.54313" lon="2.68311">
        <ele>345.621</ele>
        <time>2013-06-20T13:09:13Z</time>
      </trkpt>
      <trkpt lat="44.54312" lon="2.68307">
        <ele>345.151</ele>
        <time>2013-06-20T13:10:13Z</time>
      </trkpt>
      <trkpt lat="44.54316" lon="2.68305">
        <ele>345.135</ele>
        <time>2013-06-20T13:10:38Z</time>
      </trkpt>
      <trkpt lat="44.54321" lon="2.68301">
        <ele>345.525</ele>
        <time>2013-06-20T13:10:58Z</time>
      </trkpt>
      <trkpt lat="44.5432" lon="2.68289">
        <ele>345.073</ele>
        <time>2013-06-20T13:11:45Z</time>
      </trkpt>
      <trkpt lat="44.54328" lon="2.68263">
        <ele>344.266</ele>
        <time>2013-06-20T13:12:08Z</time>
      </trkpt>
      <trkpt lat="44.54326" lon="2.68236">
        <ele>341.375</ele>
        <time>2013-06-20T13:12:31Z</time>
      </trkpt>
      <trkpt lat="44.54323" lon="2.68211">
        <ele>339.33</ele>
        <time>2013-06-20T13:12:51Z</time>
      </trkpt>
      <trkpt lat="44.54326" lon="2.68181">
        <ele>337.585</ele>
        <time>2013-06-20T13:13:13Z</time>
      </trkpt>
      <trkpt lat="44.5433" lon="2.6815">
        <ele>334.972</ele>
        <time>2013-06-20T13:13:37Z</time>
      </trkpt>
      <trkpt lat="44.54329" lon="2.68149">
        <ele>334.784</ele>
        <time>2013-06-20T13:13:38Z</time>
      </trkpt>
      <trkpt lat="44.54318" lon="2.68139">
        <ele>334.114</ele>
        <time>2013-06-20T13:13:49Z</time>
      </trkpt>
      <trkpt lat="44.54307" lon="2.68124">
        <ele>334.022</ele>
        <time>2013-06-20T13:14:04Z</time>
      </trkpt>
      <trkpt lat="44.54303" lon="2.68125">
        <ele>334.071</ele>
        <time>2013-06-20T13:14:19Z</time>
      </trkpt>
      <trkpt lat="44.5429" lon="2.68113">
        <ele>332.37</ele>
        <time>2013-06-20T13:14:38Z</time>
      </trkpt>
      <trkpt lat="44.54285" lon="2.68098">
        <ele>332.09</ele>
        <time>2013-06-20T13:14:54Z</time>
      </trkpt>
      <trkpt lat="44.54283" lon="2.68093">
        <ele>331.951</ele>
        <time>2013-06-20T13:14:59Z</time>
      </trkpt>
      <trkpt lat="44.54276" lon="2.68077">
        <ele>332.412</ele>
        <time>2013-06-20T13:15:20Z</time>
      </trkpt>
      <trkpt lat="44.54277" lon="2.6806">
        <ele>334.164</ele>
        <time>2013-06-20T13:15:42Z</time>
      </trkpt>
      <trkpt lat="44.54276" lon="2.68057">
        <ele>334.108</ele>
        <time>2013-06-20T13:16:05Z</time>
      </trkpt>
      <trkpt lat="44.54276" lon="2.68058">
        <ele>334.602</ele>
        <time>2013-06-20T13:16:22Z</time>
      </trkpt>
      <trkpt lat="44.54281" lon="2.68057">
        <ele>334.078</ele>
        <time>2013-06-20T13:16:31Z</time>
      </trkpt>
      <trkpt lat="44.54299" lon="2.68058">
        <ele>334.105</ele>
        <time>2013-06-20T13:16:51Z</time>
      </trkpt>
      <trkpt lat="44.54309" lon="2.68068">
        <ele>333.709</ele>
        <time>2013-06-20T13:17:13Z</time>
      </trkpt>
      <trkpt lat="44.54322" lon="2.68072">
        <ele>334.406</ele>
        <time>2013-06-20T13:17:35Z</time>
      </trkpt>
      <trkpt lat="44.5434" lon="2.68089">
        <ele>334.251</ele>
        <time>2013-06-20T13:17:54Z</time>
      </trkpt>
      <trkpt lat="44.5435" lon="2.68114">
        <ele>334.417</ele>
        <time>2013-06-20T13:18:14Z</time>
      </trkpt>
      <trkpt lat="44.54358" lon="2.68134">
        <ele>334.799</ele>
        <time>2013-06-20T13:18:32Z</time>
      </trkpt>
      <trkpt lat="44.54374" lon="2.68155">
        <ele>336.118</ele>
        <time>2013-06-20T13:18:53Z</time>
      </trkpt>
      <trkpt lat="44.54394" lon="2.68171">
        <ele>337.618</ele>
        <time>2013-06-20T13:19:14Z</time>
      </trkpt>
      <trkpt lat="44.54415" lon="2.68185">
        <ele>338.392</ele>
        <time>2013-06-20T13:19:38Z</time>
      </trkpt>
      <trkpt lat="44.54427" lon="2.68193">
        <ele>338.826</ele>
        <time>2013-06-20T13:20:01Z</time>
      </trkpt>
      <trkpt lat="44.5444" lon="2.68184">
        <ele>338.852</ele>
        <time>2013-06-20T13:20:41Z</time>
      </trkpt>
      <trkpt lat="44.5444" lon="2.68186">
        <ele>337.936</ele>
        <time>2013-06-20T13:20:58Z</time>
      </trkpt>
      <trkpt lat="44.54442" lon="2.68183">
        <ele>338.44</ele>
        <time>2013-06-20T13:21:51Z</time>
      </trkpt>
      <trkpt lat="44.54449" lon="2.68182">
        <ele>338.865</ele>
        <time>2013-06-20T13:22:25Z</time>
      </trkpt>
      <trkpt lat="44.54458" lon="2.6818">
        <ele>339.546</ele>
        <time>2013-06-20T13:22:53Z</time>
      </trkpt>
      <trkpt lat="44.54476" lon="2.68178">
        <ele>340.357</ele>
        <time>2013-06-20T13:23:13Z</time>
      </trkpt>
      <trkpt lat="44.54496" lon="2.68167">
        <ele>341.656</ele>
        <time>2013-06-20T13:23:38Z</time>
      </trkpt>
      <trkpt lat="44.54511" lon="2.68164">
        <ele>341.442</ele>
        <time>2013-06-20T13:23:58Z</time>
      </trkpt>
      <trkpt lat="44.54513" lon="2.68162">
        <ele>342.136</ele>
        <time>2013-06-20T13:24:28Z</time>
      </trkpt>
      <trkpt lat="44.54519" lon="2.6816">
        <ele>342.913</ele>
        <time>2013-06-20T13:24:41Z</time>
      </trkpt>
      <trkpt lat="44.5454" lon="2.68166">
        <ele>343.753</ele>
        <time>2013-06-20T13:25:04Z</time>
      </trkpt>
      <trkpt lat="44.54565" lon="2.68172">
        <ele>344.661</ele>
        <time>2013-06-20T13:25:27Z</time>
      </trkpt>
      <trkpt lat="44.54588" lon="2.68173">
        <ele>345.151</ele>
        <time>2013-06-20T13:25:51Z</time>
      </trkpt>
      <trkpt lat="44.5461" lon="2.68177">
        <ele>345.344</ele>
        <time>2013-06-20T13:26:13Z</time>
      </trkpt>
      <trkpt lat="44.54615" lon="2.68178">
        <ele>345.082</ele>
        <time>2013-06-20T13:26:24Z</time>
      </trkpt>
      <trkpt lat="44.54612" lon="2.68178">
        <ele>345.118</ele>
        <time>2013-06-20T13:26:52Z</time>
      </trkpt>
      <trkpt lat="44.54617" lon="2.68187">
        <ele>345.709</ele>
        <time>2013-06-20T13:27:13Z</time>
      </trkpt>
      <trkpt lat="44.54629" lon="2.68213">
        <ele>345.833</ele>
        <time>2013-06-20T13:27:38Z</time>
      </trkpt>
      <trkpt lat="44.54629" lon="2.68214">
        <ele>345.752</ele>
        <time>2013-06-20T13:27:39Z</time>
      </trkpt>
      <trkpt lat="44.5463" lon="2.68224">
        <ele>345.889</ele>
        <time>2013-06-20T13:27:47Z</time>
      </trkpt>
      <trkpt lat="44.5464" lon="2.68251">
        <ele>346.273</ele>
        <time>2013-06-20T13:28:09Z</time>
      </trkpt>
      <trkpt lat="44.54651" lon="2.68283">
        <ele>346.556</ele>
        <time>2013-06-20T13:28:34Z</time>
      </trkpt>
      <trkpt lat="44.54667" lon="2.68311">
        <ele>346.13</ele>
        <time>2013-06-20T13:29:00Z</time>
      </trkpt>
      <trkpt lat="44.54685" lon="2.68335">
        <ele>345.494</ele>
        <time>2013-06-20T13:29:24Z</time>
      </trkpt>
      <trkpt lat="44.54689" lon="2.6834">
        <ele>345.81</ele>
        <time>2013-06-20T13:29:37Z</time>
      </trkpt>
      <trkpt lat="44.54704" lon="2.68374">
        <ele>344.804</ele>
        <time>2013-06-20T13:30:05Z</time>
      </trkpt>
      <trkpt lat="44.54714" lon="2.68413">
        <ele>344.872</ele>
        <time>2013-06-20T13:30:34Z</time>
      </trkpt>
      <trkpt lat="44.54717" lon="2.68426">
        <ele>344.454</ele>
        <time>2013-06-20T13:30:48Z</time>
      </trkpt>
      <trkpt lat="44.54729" lon="2.68448">
        <ele>345.881</ele>
        <time>2013-06-20T13:31:14Z</time>
      </trkpt>
      <trkpt lat="44.54732" lon="2.68455">
        <ele>348.732</ele>
        <time>2013-06-20T13:31:30Z</time>
      </trkpt>
      <trkpt lat="44.54736" lon="2.68465">
        <ele>351.135</ele>
        <time>2013-06-20T13:31:50Z</time>
      </trkpt>
      <trkpt lat="44.54739" lon="2.68473">
        <ele>353.008</ele>
        <time>2013-06-20T13:32:07Z</time>
      </trkpt>
      <trkpt lat="44.54743" lon="2.68482">
        <ele>355.261</ele>
        <time>2013-06-20T13:32:24Z</time>
      </trkpt>
      <trkpt lat="44.54743" lon="2.68498">
        <ele>355.676</ele>
        <time>2013-06-20T13:32:41Z</time>
      </trkpt>
      <trkpt lat="44.5475" lon="2.68517">
        <ele>357.35</ele>
        <time>2013-06-20T13:33:00Z</time>
      </trkpt>
      <trkpt lat="44.54758" lon="2.68535">
        <ele>357.218</ele>
        <time>2013-06-20T13:33:23Z</time>
      </trkpt>
      <trkpt lat="44.54767" lon="2.68542">
        <ele>358.781</ele>
        <time>2013-06-20T13:33:41Z</time>
      </trkpt>
      <trkpt lat="44.5477" lon="2.68546">
        <ele>360.036</ele>
        <time>2013-06-20T13:33:47Z</time>
      </trkpt>
      <trkpt lat="44.54773" lon="2.68553">
        <ele>360.774</ele>
        <time>2013-06-20T13:34:00Z</time>
      </trkpt>
      <trkpt lat="44.54781" lon="2.68569">
        <ele>362.524</ele>
        <time>2013-06-20T13:34:19Z</time>
      </trkpt>
      <trkpt lat="44.54788" lon="2.68583">
        <ele>364.825</ele>
        <time>2013-06-20T13:34:37Z</time>
      </trkpt>
      <trkpt lat="44.54796" lon="2.68596">
        <ele>365.935</ele>
        <time>2013-06-20T13:34:56Z</time>
      </trkpt>
      <trkpt lat="44.54804" lon="2.68609">
        <ele>368.305</ele>
        <time>2013-06-20T13:35:15Z</time>
      </trkpt>
      <trkpt lat="44.54811" lon="2.68621">
        <ele>369.871</ele>
        <time>2013-06-20T13:35:32Z</time>
      </trkpt>
      <trkpt lat="44.5482" lon="2.68633">
        <ele>371.282</ele>
        <time>2013-06-20T13:35:51Z</time>
      </trkpt>
      <trkpt lat="44.54829" lon="2.68639">
        <ele>373.065</ele>
        <time>2013-06-20T13:36:05Z</time>
      </trkpt>
      <trkpt lat="44.5484" lon="2.68641">
        <ele>374.207</ele>
        <time>2013-06-20T13:36:21Z</time>
      </trkpt>
      <trkpt lat="44.5485" lon="2.68641">
        <ele>375.257</ele>
        <time>2013-06-20T13:36:38Z</time>
      </trkpt>
      <trkpt lat="44.54863" lon="2.68639">
        <ele>376.896</ele>
        <time>2013-06-20T13:36:57Z</time>
      </trkpt>
      <trkpt lat="44.54873" lon="2.68635">
        <ele>378.563</ele>
        <time>2013-06-20T13:37:13Z</time>
      </trkpt>
      <trkpt lat="44.54878" lon="2.68633">
        <ele>378.378</ele>
        <time>2013-06-20T13:37:24Z</time>
      </trkpt>
      <trkpt lat="44.54884" lon="2.68617">
        <ele>379.601</ele>
        <time>2013-06-20T13:37:42Z</time>
      </trkpt>
      <trkpt lat="44.54885" lon="2.68605">
        <ele>380.372</ele>
        <time>2013-06-20T13:38:01Z</time>
      </trkpt>
      <trkpt lat="44.54886" lon="2.68597">
        <ele>380.403</ele>
        <time>2013-06-20T13:38:19Z</time>
      </trkpt>
      <trkpt lat="44.54887" lon="2.68594">
        <ele>380.808</ele>
        <time>2013-06-20T13:38:46Z</time>
      </trkpt>
      <trkpt lat="44.54886" lon="2.68593">
        <ele>380.215</ele>
        <time>2013-06-20T13:39:19Z</time>
      </trkpt>
      <trkpt lat="44.54884" lon="2.68592">
        <ele>379.949</ele>
        <time>2013-06-20T13:41:05Z</time>
      </trkpt>
      <trkpt lat="44.54886" lon="2.68591">
        <ele>378.415</ele>
        <time>2013-06-20T13:43:59Z</time>
      </trkpt>
      <trkpt lat="44.54887" lon="2.68579">
        <ele>377.242</ele>
        <time>2013-06-20T13:44:16Z</time>
      </trkpt>
      <trkpt lat="44.54886" lon="2.68559">
        <ele>376.516</ele>
        <time>2013-06-20T13:44:34Z</time>
      </trkpt>
      <trkpt lat="44.54885" lon="2.68546">
        <ele>376.541</ele>
        <time>2013-06-20T13:44:47Z</time>
      </trkpt>
      <trkpt lat="44.54884" lon="2.6853">
        <ele>374.962</ele>
        <time>2013-06-20T13:45:04Z</time>
      </trkpt>
      <trkpt lat="44.54886" lon="2.68512">
        <ele>373.753</ele>
        <time>2013-06-20T13:45:21Z</time>
      </trkpt>
      <trkpt lat="44.54887" lon="2.68492">
        <ele>371.092</ele>
        <time>2013-06-20T13:45:41Z</time>
      </trkpt>
      <trkpt lat="44.54885" lon="2.68478">
        <ele>369.948</ele>
        <time>2013-06-20T13:45:54Z</time>
      </trkpt>
      <trkpt lat="44.54887" lon="2.68463">
        <ele>370.079</ele>
        <time>2013-06-20T13:46:06Z</time>
      </trkpt>
      <trkpt lat="44.54888" lon="2.68448">
        <ele>369.639</ele>
        <time>2013-06-20T13:46:20Z</time>
      </trkpt>
      <trkpt lat="44.5489" lon="2.68427">
        <ele>368.726</ele>
        <time>2013-06-20T13:46:35Z</time>
      </trkpt>
      <trkpt lat="44.54891" lon="2.68401">
        <ele>367.856</ele>
        <time>2013-06-20T13:46:55Z</time>
      </trkpt>
      <trkpt lat="44.54891" lon="2.68382">
        <ele>367.634</ele>
        <time>2013-06-20T13:47:12Z</time>
      </trkpt>
      <trkpt lat="44.54889" lon="2.68362">
        <ele>366.62</ele>
        <time>2013-06-20T13:47:31Z</time>
      </trkpt>
      <trkpt lat="44.54888" lon="2.68341">
        <ele>365.774</ele>
        <time>2013-06-20T13:47:47Z</time>
      </trkpt>
      <trkpt lat="44.54887" lon="2.68324">
        <ele>363.595</ele>
        <time>2013-06-20T13:48:04Z</time>
      </trkpt>
      <trkpt lat="44.54885" lon="2.68307">
        <ele>362.683</ele>
        <time>2013-06-20T13:48:21Z</time>
      </trkpt>
      <trkpt lat="44.54883" lon="2.68289">
        <ele>360.088</ele>
        <time>2013-06-20T13:48:38Z</time>
      </trkpt>
      <trkpt lat="44.54878" lon="2.68272">
        <ele>358.83</ele>
        <time>2013-06-20T13:48:53Z</time>
      </trkpt>
      <trkpt lat="44.54876" lon="2.68255">
        <ele>356.863</ele>
        <time>2013-06-20T13:49:08Z</time>
      </trkpt>
      <trkpt lat="44.54874" lon="2.68235">
        <ele>356.065</ele>
        <time>2013-06-20T13:49:26Z</time>
      </trkpt>
      <trkpt lat="44.5487" lon="2.68218">
        <ele>355.515</ele>
        <time>2013-06-20T13:49:39Z</time>
      </trkpt>
      <trkpt lat="44.54869" lon="2.68205">
        <ele>353.835</ele>
        <time>2013-06-20T13:49:51Z</time>
      </trkpt>
      <trkpt lat="44.54865" lon="2.68186">
        <ele>353.032</ele>
        <time>2013-06-20T13:50:07Z</time>
      </trkpt>
      <trkpt lat="44.54865" lon="2.68173">
        <ele>352.159</ele>
        <time>2013-06-20T13:50:19Z</time>
      </trkpt>
      <trkpt lat="44.54857" lon="2.68158">
        <ele>352.063</ele>
        <time>2013-06-20T13:50:37Z</time>
      </trkpt>
      <trkpt lat="44.54858" lon="2.68147">
        <ele>352.163</ele>
        <time>2013-06-20T13:50:54Z</time>
      </trkpt>
      <trkpt lat="44.54855" lon="2.68134">
        <ele>351.368</ele>
        <time>2013-06-20T13:51:06Z</time>
      </trkpt>
      <trkpt lat="44.54854" lon="2.6812">
        <ele>350.47</ele>
        <time>2013-06-20T13:51:18Z</time>
      </trkpt>
      <trkpt lat="44.54851" lon="2.68099">
        <ele>349.221</ele>
        <time>2013-06-20T13:51:33Z</time>
      </trkpt>
      <trkpt lat="44.54852" lon="2.68079">
        <ele>347.611</ele>
        <time>2013-06-20T13:51:52Z</time>
      </trkpt>
      <trkpt lat="44.54852" lon="2.68063">
        <ele>346.659</ele>
        <time>2013-06-20T13:52:09Z</time>
      </trkpt>
      <trkpt lat="44.54856" lon="2.68051">
        <ele>345.571</ele>
        <time>2013-06-20T13:52:35Z</time>
      </trkpt>
      <trkpt lat="44.54861" lon="2.68033">
        <ele>343.304</ele>
        <time>2013-06-20T13:52:56Z</time>
      </trkpt>
      <trkpt lat="44.54864" lon="2.68015">
        <ele>340.345</ele>
        <time>2013-06-20T13:53:17Z</time>
      </trkpt>
      <trkpt lat="44.54868" lon="2.68001">
        <ele>338.694</ele>
        <time>2013-06-20T13:53:35Z</time>
      </trkpt>
      <trkpt lat="44.54874" lon="2.67988">
        <ele>336.341</ele>
        <time>2013-06-20T13:53:51Z</time>
      </trkpt>
      <trkpt lat="44.5488" lon="2.67972">
        <ele>335.081</ele>
        <time>2013-06-20T13:54:13Z</time>
      </trkpt>
      <trkpt lat="44.54875" lon="2.67967">
        <ele>335.882</ele>
        <time>2013-06-20T13:54:45Z</time>
      </trkpt>
      <trkpt lat="44.54874" lon="2.67964">
        <ele>335.309</ele>
        <time>2013-06-20T13:55:28Z</time>
      </trkpt>
      <trkpt lat="44.54887" lon="2.67962">
        <ele>335.351</ele>
        <time>2013-06-20T13:55:56Z</time>
      </trkpt>
      <trkpt lat="44.54888" lon="2.6796">
        <ele>335.64</ele>
        <time>2013-06-20T13:56:14Z</time>
      </trkpt>
      <trkpt lat="44.54888" lon="2.67947">
        <ele>336.055</ele>
        <time>2013-06-20T13:56:33Z</time>
      </trkpt>
      <trkpt lat="44.54901" lon="2.67926">
        <ele>335.583</ele>
        <time>2013-06-20T13:56:54Z</time>
      </trkpt>
      <trkpt lat="44.54906" lon="2.67898">
        <ele>335.769</ele>
        <time>2013-06-20T13:57:17Z</time>
      </trkpt>
      <trkpt lat="44.54912" lon="2.67891">
        <ele>334.978</ele>
        <time>2013-06-20T13:57:33Z</time>
      </trkpt>
      <trkpt lat="44.54919" lon="2.67878">
        <ele>334.916</ele>
        <time>2013-06-20T13:57:46Z</time>
      </trkpt>
      <trkpt lat="44.54935" lon="2.6786">
        <ele>335.206</ele>
        <time>2013-06-20T13:58:08Z</time>
      </trkpt>
      <trkpt lat="44.54949" lon="2.67843">
        <ele>334.588</ele>
        <time>2013-06-20T13:58:30Z</time>
      </trkpt>
      <trkpt lat="44.54968" lon="2.67824">
        <ele>334.658</ele>
        <time>2013-06-20T13:58:53Z</time>
      </trkpt>
      <trkpt lat="44.54993" lon="2.67802">
        <ele>334.553</ele>
        <time>2013-06-20T13:59:21Z</time>
      </trkpt>
      <trkpt lat="44.55015" lon="2.67779">
        <ele>334.565</ele>
        <time>2013-06-20T13:59:46Z</time>
      </trkpt>
      <trkpt lat="44.55033" lon="2.67754">
        <ele>333.785</ele>
        <time>2013-06-20T14:00:13Z</time>
      </trkpt>
      <trkpt lat="44.55049" lon="2.67732">
        <ele>333.968</ele>
        <time>2013-06-20T14:00:37Z</time>
      </trkpt>
      <trkpt lat="44.55066" lon="2.67706">
        <ele>333.961</ele>
        <time>2013-06-20T14:01:02Z</time>
      </trkpt>
      <trkpt lat="44.55077" lon="2.67684">
        <ele>334.042</ele>
        <time>2013-06-20T14:01:23Z</time>
      </trkpt>
      <trkpt lat="44.55089" lon="2.67654">
        <ele>334.267</ele>
        <time>2013-06-20T14:01:47Z</time>
      </trkpt>
      <trkpt lat="44.55096" lon="2.67626">
        <ele>334.368</ele>
        <time>2013-06-20T14:02:09Z</time>
      </trkpt>
      <trkpt lat="44.55102" lon="2.67605">
        <ele>334.346</ele>
        <time>2013-06-20T14:02:29Z</time>
      </trkpt>
      <trkpt lat="44.55105" lon="2.67601">
        <ele>333.995</ele>
        <time>2013-06-20T14:02:47Z</time>
      </trkpt>
      <trkpt lat="44.55103" lon="2.67597">
        <ele>333.951</ele>
        <time>2013-06-20T14:03:07Z</time>
      </trkpt>
      <trkpt lat="44.55109" lon="2.67574">
        <ele>333.962</ele>
        <time>2013-06-20T14:03:27Z</time>
      </trkpt>
      <trkpt lat="44.55121" lon="2.67547">
        <ele>334.217</ele>
        <time>2013-06-20T14:03:51Z</time>
      </trkpt>
      <trkpt lat="44.55133" lon="2.67525">
        <ele>334.054</ele>
        <time>2013-06-20T14:04:11Z</time>
      </trkpt>
      <trkpt lat="44.55144" lon="2.67506">
        <ele>333.71</ele>
        <time>2013-06-20T14:04:32Z</time>
      </trkpt>
      <trkpt lat="44.55149" lon="2.67496">
        <ele>333.519</ele>
        <time>2013-06-20T14:04:45Z</time>
      </trkpt>
      <trkpt lat="44.55152" lon="2.67494">
        <ele>333.67</ele>
        <time>2013-06-20T14:04:59Z</time>
      </trkpt>
      <trkpt lat="44.55165" lon="2.67477">
        <ele>332.639</ele>
        <time>2013-06-20T14:05:27Z</time>
      </trkpt>
      <trkpt lat="44.55173" lon="2.67476">
        <ele>332.632</ele>
        <time>2013-06-20T14:05:44Z</time>
      </trkpt>
      <trkpt lat="44.55196" lon="2.6745">
        <ele>332.463</ele>
        <time>2013-06-20T14:06:04Z</time>
      </trkpt>
      <trkpt lat="44.55215" lon="2.67419">
        <ele>332.363</ele>
        <time>2013-06-20T14:06:30Z</time>
      </trkpt>
      <trkpt lat="44.55221" lon="2.6741">
        <ele>332.97</ele>
        <time>2013-06-20T14:06:50Z</time>
      </trkpt>
      <trkpt lat="44.55229" lon="2.67406">
        <ele>332.747</ele>
        <time>2013-06-20T14:07:11Z</time>
      </trkpt>
      <trkpt lat="44.55233" lon="2.67396">
        <ele>332.695</ele>
        <time>2013-06-20T14:07:42Z</time>
      </trkpt>
      <trkpt lat="44.55237" lon="2.6739">
        <ele>332.301</ele>
        <time>2013-06-20T14:07:47Z</time>
      </trkpt>
      <trkpt lat="44.55248" lon="2.67345">
        <ele>332.406</ele>
        <time>2013-06-20T14:08:19Z</time>
      </trkpt>
      <trkpt lat="44.55251" lon="2.67317">
        <ele>331.454</ele>
        <time>2013-06-20T14:08:47Z</time>
      </trkpt>
      <trkpt lat="44.5525" lon="2.67293">
        <ele>331.299</ele>
        <time>2013-06-20T14:09:14Z</time>
      </trkpt>
      <trkpt lat="44.55249" lon="2.67257">
        <ele>331.14</ele>
        <time>2013-06-20T14:09:42Z</time>
      </trkpt>
      <trkpt lat="44.5525" lon="2.67238">
        <ele>331.272</ele>
        <time>2013-06-20T14:10:10Z</time>
      </trkpt>
      <trkpt lat="44.55251" lon="2.67219">
        <ele>330.977</ele>
        <time>2013-06-20T14:10:31Z</time>
      </trkpt>
      <trkpt lat="44.55256" lon="2.67205">
        <ele>330.763</ele>
        <time>2013-06-20T14:10:50Z</time>
      </trkpt>
      <trkpt lat="44.55254" lon="2.67204">
        <ele>330.649</ele>
        <time>2013-06-20T14:11:40Z</time>
      </trkpt>
      <trkpt lat="44.55256" lon="2.67203">
        <ele>330.441</ele>
        <time>2013-06-20T14:11:56Z</time>
      </trkpt>
      <trkpt lat="44.55264" lon="2.67201">
        <ele>330.465</ele>
        <time>2013-06-20T14:12:24Z</time>
      </trkpt>
      <trkpt lat="44.55282" lon="2.67197">
        <ele>330.436</ele>
        <time>2013-06-20T14:12:45Z</time>
      </trkpt>
      <trkpt lat="44.553" lon="2.67193">
        <ele>329.948</ele>
        <time>2013-06-20T14:13:09Z</time>
      </trkpt>
      <trkpt lat="44.55321" lon="2.67189">
        <ele>329.187</ele>
        <time>2013-06-20T14:13:35Z</time>
      </trkpt>
      <trkpt lat="44.55339" lon="2.67191">
        <ele>327.235</ele>
        <time>2013-06-20T14:14:00Z</time>
      </trkpt>
      <trkpt lat="44.55342" lon="2.67204">
        <ele>326.705</ele>
        <time>2013-06-20T14:14:11Z</time>
      </trkpt>
      <trkpt lat="44.55347" lon="2.67202">
        <ele>325.541</ele>
        <time>2013-06-20T14:14:28Z</time>
      </trkpt>
      <trkpt lat="44.55335" lon="2.67185">
        <ele>326.517</ele>
        <time>2013-06-20T14:14:44Z</time>
      </trkpt>
      <trkpt lat="44.55336" lon="2.67185">
        <ele>323.406</ele>
        <time>2013-06-20T14:15:18Z</time>
      </trkpt>
    </trkseg>
  </trk>
</gpx>